Time;durP1;ratioP1;P1;durP2;ratioP2;P2;SDS_P1;SDS_P2;PMS_P1;PMS_P2;Temp;Humidity;BMP_temperature;BMP_pressure;BME280_temperature;BME280_humidity;BME280_pressure;Samples;Min_cycle;Max_cycle;Signal;HPM_P1;HPM_P2
2020/12/09 00:00:07;;;;;;;68.18;36.50;;;;;;;;;;5165662;27;20202;-62
2020/12/09 00:02:34;;;;;;;68.50;37.40;;;;;;;;;;5163627;27;20233;-62
2020/12/09 00:05:01;;;;;;;70.32;37.45;;;;;;;;;;5161492;27;20194;-62
2020/12/09 00:07:28;;;;;;;68.90;38.45;;;;;;;;;;5160836;27;20704;-61
2020/12/09 00:09:55;;;;;;;67.60;38.47;;;;;;;;;;5161659;27;20620;-61
2020/12/09 00:12:22;;;;;;;73.93;40.92;;;;;;;;;;5158128;27;20214;-61
2020/12/09 00:14:49;;;;;;;68.10;39.88;;;;;;;;;;5157448;27;20206;-62
2020/12/09 00:17:16;;;;;;;61.17;38.15;;;;;;;;;;5157378;27;20598;-62
2020/12/09 00:19:42;;;;;;;71.45;37.80;;;;;;;;;;5157232;27;20726;-62
2020/12/09 00:22:10;;;;;;;69.47;38.08;;;;;;;;;;5156929;27;20218;-62
2020/12/09 00:24:36;;;;;;;66.53;35.95;;;;;;;;;;5160816;27;20221;-62
2020/12/09 00:27:05;;;;;;;67.00;38.58;;;;;;;;;;5160716;27;20205;-62
2020/12/09 00:29:32;;;;;;;70.28;39.65;;;;;;;;;;5161428;27;20278;-61
2020/12/09 00:31:58;;;;;;;66.95;39.17;;;;;;;;;;5171491;27;20218;-62
2020/12/09 00:34:25;;;;;;;66.55;39.05;;;;;;;;;;5162153;27;20198;-62
2020/12/09 00:36:52;;;;;;;62.58;38.30;;;;;;;;;;5159983;27;20202;-62
2020/12/09 00:39:18;;;;;;;59.38;36.72;;;;;;;;;;5159847;27;20202;-62
2020/12/09 00:41:45;;;;;;;62.92;38.00;;;;;;;;;;5159703;27;20271;-61
2020/12/09 00:44:13;;;;;;;56.45;34.83;;;;;;;;;;5159763;27;20202;-61
2020/12/09 00:46:40;;;;;;;67.82;37.72;;;;;;;;;;5160017;27;20232;-62
2020/12/09 00:49:06;;;;;;;52.33;33.50;;;;;;;;;;5159652;27;20258;-62
2020/12/09 00:51:33;;;;;;;58.67;35.70;;;;;;;;;;5159935;27;20274;-62
2020/12/09 00:54:00;;;;;;;66.45;37.63;;;;;;;;;;5159954;27;20202;-62
2020/12/09 00:56:27;;;;;;;60.22;35.45;;;;;;;;;;5159617;27;20201;-62
2020/12/09 00:58:53;;;;;;;55.80;33.55;;;;;;;;;;5159901;27;20190;-62
2020/12/09 01:01:21;;;;;;;63.72;36.10;;;;;;;;;;5159403;27;20226;-62
2020/12/09 01:03:48;;;;;;;66.03;35.80;;;;;;;;;;5159656;27;20673;-61
2020/12/09 01:06:15;;;;;;;65.63;36.92;;;;;;;;;;5159131;27;20198;-62
2020/12/09 01:08:41;;;;;;;53.72;33.03;;;;;;;;;;5159192;27;20222;-62
2020/12/09 01:11:08;;;;;;;63.38;37.25;;;;;;;;;;5159045;27;20230;-62
2020/12/09 01:13:35;;;;;;;59.90;35.97;;;;;;;;;;5159491;27;20203;-61
2020/12/09 01:16:02;;;;;;;64.47;33.13;;;;;;;;;;5164753;27;20345;-62
2020/12/09 01:18:29;;;;;;;61.65;34.60;;;;;;;;;;5162571;27;20255;-61
2020/12/09 01:20:56;;;;;;;60.13;34.55;;;;;;;;;;5159084;27;20222;-61
2020/12/09 01:23:23;;;;;;;58.10;33.42;;;;;;;;;;5160137;27;20602;-62
2020/12/09 01:25:50;;;;;;;63.88;35.67;;;;;;;;;;5162174;27;20657;-62
2020/12/09 01:28:17;;;;;;;63.97;37.88;;;;;;;;;;5165670;27;20210;-62
2020/12/09 01:30:43;;;;;;;61.72;32.50;;;;;;;;;;5163582;27;20588;-63
2020/12/09 01:33:10;;;;;;;52.33;33.15;;;;;;;;;;5162351;27;20231;-62
2020/12/09 01:35:38;;;;;;;56.78;33.95;;;;;;;;;;5159159;27;20206;-61
2020/12/09 01:38:04;;;;;;;63.03;35.35;;;;;;;;;;5159116;27;20259;-62
2020/12/09 01:40:31;;;;;;;61.03;34.15;;;;;;;;;;5158590;27;20220;-62
2020/12/09 01:42:58;;;;;;;66.00;35.38;;;;;;;;;;5158446;27;20198;-61
2020/12/09 01:45:25;;;;;;;62.72;33.65;;;;;;;;;;5160563;27;20203;-62
2020/12/09 01:47:52;;;;;;;57.63;34.47;;;;;;;;;;5157997;27;20622;-62
2020/12/09 01:50:18;;;;;;;56.67;34.15;;;;;;;;;;5158622;27;20210;-62
2020/12/09 01:52:46;;;;;;;58.22;36.30;;;;;;;;;;5159017;27;20250;-62
2020/12/09 01:55:13;;;;;;;66.78;35.92;;;;;;;;;;5161255;27;20191;-62
2020/12/09 01:57:40;;;;;;;58.53;33.33;;;;;;;;;;5160285;27;20702;-61
2020/12/09 02:00:06;;;;;;;64.68;35.55;;;;;;;;;;5159231;27;20250;-62
2020/12/09 02:02:33;;;;;;;62.85;34.45;;;;;;;;;;5159060;27;20278;-62
2020/12/09 02:05:00;;;;;;;57.38;33.63;;;;;;;;;;5158857;27;20279;-62
2020/12/09 02:07:27;;;;;;;61.70;34.45;;;;;;;;;;5158845;27;20202;-62
2020/12/09 02:09:59;;;;;;;63.17;34.03;;;;;;;;;;5158282;27;20757;-61
2020/12/09 02:12:25;;;;;;;63.60;34.40;;;;;;;;;;5157788;27;20218;-61
2020/12/09 02:14:52;;;;;;;61.95;33.20;;;;;;;;;;5158742;27;20270;-62
2020/12/09 02:17:19;;;;;;;63.65;34.10;;;;;;;;;;5158399;27;20206;-62
2020/12/09 02:19:46;;;;;;;62.20;33.38;;;;;;;;;;5168725;27;20190;-63
2020/12/09 02:22:13;;;;;;;59.88;33.03;;;;;;;;;;5158306;27;20218;-62
2020/12/09 02:24:40;;;;;;;64.95;35.75;;;;;;;;;;5157308;27;20665;-62
2020/12/09 02:27:07;;;;;;;60.55;33.67;;;;;;;;;;5156970;27;20198;-61
2020/12/09 02:29:34;;;;;;;60.55;34.67;;;;;;;;;;5157389;27;20218;-62
2020/12/09 02:32:01;;;;;;;65.65;33.40;;;;;;;;;;5157068;27;20218;-62
2020/12/09 02:34:28;;;;;;;62.13;35.03;;;;;;;;;;5158292;27;20252;-61
2020/12/09 02:36:55;;;;;;;63.75;35.08;;;;;;;;;;5158501;27;20199;-62
2020/12/09 02:39:31;;;;;;;60.22;35.10;;;;;;;;;;5157798;27;20194;-61
2020/12/09 02:41:58;;;;;;;63.45;34.30;;;;;;;;;;5157282;27;20705;-62
2020/12/09 02:44:25;;;;;;;63.70;34.88;;;;;;;;;;5158070;27;20228;-62
2020/12/09 02:46:52;;;;;;;67.30;35.05;;;;;;;;;;5156874;27;20206;-62
2020/12/09 02:49:18;;;;;;;61.90;33.78;;;;;;;;;;5157391;27;20225;-62
2020/12/09 02:51:45;;;;;;;60.55;34.17;;;;;;;;;;5158788;27;20240;-62
2020/12/09 02:54:12;;;;;;;71.90;38.08;;;;;;;;;;5162624;27;20194;-61
2020/12/09 02:56:40;;;;;;;68.68;36.55;;;;;;;;;;5161660;27;20207;-62
2020/12/09 02:59:06;;;;;;;68.10;35.90;;;;;;;;;;5156958;27;20198;-62
2020/12/09 03:01:34;;;;;;;68.07;36.90;;;;;;;;;;5158309;27;20275;-62
2020/12/09 03:04:01;;;;;;;72.65;36.35;;;;;;;;;;5158745;27;20240;-62
2020/12/09 03:06:28;;;;;;;67.28;35.90;;;;;;;;;;5162585;27;20734;-61
2020/12/09 03:08:54;;;;;;;75.25;35.72;;;;;;;;;;5158080;27;20286;-62
2020/12/09 03:11:21;;;;;;;68.22;36.22;;;;;;;;;;5156754;27;20214;-63
2020/12/09 03:13:49;;;;;;;73.22;35.63;;;;;;;;;;5157173;27;20293;-62
2020/12/09 03:16:16;;;;;;;69.72;35.53;;;;;;;;;;5156763;27;20623;-61
2020/12/09 03:18:42;;;;;;;73.25;36.17;;;;;;;;;;5156833;27;20614;-61
2020/12/09 03:21:09;;;;;;;79.80;39.78;;;;;;;;;;5156966;27;20273;-61
2020/12/09 03:23:36;;;;;;;71.47;36.63;;;;;;;;;;5156518;27;20722;-62
2020/12/09 03:26:03;;;;;;;71.60;38.10;;;;;;;;;;5156954;27;20232;-61
2020/12/09 03:28:30;;;;;;;76.65;38.97;;;;;;;;;;5156115;27;20222;-62
2020/12/09 03:30:57;;;;;;;78.47;38.90;;;;;;;;;;5155439;27;20627;-61
2020/12/09 03:33:24;;;;;;;66.22;33.60;;;;;;;;;;5155602;27;20205;-61
2020/12/09 03:35:51;;;;;;;78.63;37.67;;;;;;;;;;5155844;27;20198;-61
2020/12/09 03:38:17;;;;;;;81.53;38.70;;;;;;;;;;5156127;27;20194;-62
2020/12/09 03:40:44;;;;;;;81.50;40.78;;;;;;;;;;5155836;27;20218;-62
2020/12/09 03:43:11;;;;;;;77.47;37.03;;;;;;;;;;5155737;27;20198;-61
2020/12/09 03:45:38;;;;;;;72.57;38.38;;;;;;;;;;5155466;27;20202;-60
2020/12/09 03:48:05;;;;;;;83.93;36.60;;;;;;;;;;5155902;27;20274;-62
2020/12/09 03:50:32;;;;;;;77.82;41.17;;;;;;;;;;5155528;27;20661;-62
2020/12/09 03:52:59;;;;;;;85.45;40.28;;;;;;;;;;5155834;27;20198;-61
2020/12/09 03:55:26;;;;;;;79.47;40.55;;;;;;;;;;5155791;27;20198;-62
2020/12/09 03:57:52;;;;;;;74.22;37.58;;;;;;;;;;5155747;27;20198;-61
2020/12/09 04:00:19;;;;;;;88.85;40.22;;;;;;;;;;5155574;27;20243;-62
2020/12/09 04:02:46;;;;;;;94.95;42.42;;;;;;;;;;5155400;27;20195;-62
2020/12/09 04:07:26;;;;;;;82.25;39.45;;;;;;;;;;5112164;27;20544;-61
2020/12/09 04:09:53;;;;;;;83.68;39.42;;;;;;;;;;5111476;28;20200;-61
2020/12/09 04:12:23;;;;;;;79.55;37.15;;;;;;;;;;5111160;28;20261;-62
2020/12/09 04:14:50;;;;;;;82.75;39.58;;;;;;;;;;5111620;28;20203;-61
2020/12/09 04:17:16;;;;;;;72.85;39.65;;;;;;;;;;5111637;28;20287;-62
2020/12/09 04:19:43;;;;;;;88.47;41.13;;;;;;;;;;5117610;28;20200;-62
2020/12/09 04:22:10;;;;;;;85.32;39.80;;;;;;;;;;5120577;28;20764;-62
2020/12/09 04:24:38;;;;;;;81.80;40.28;;;;;;;;;;5112704;28;20260;-61
2020/12/09 04:27:04;;;;;;;78.80;40.33;;;;;;;;;;5113497;28;20298;-61
2020/12/09 04:29:31;;;;;;;81.75;42.00;;;;;;;;;;5111609;28;20273;-60
2020/12/09 04:31:58;;;;;;;80.57;40.90;;;;;;;;;;5110913;28;20223;-61
2020/12/09 04:34:26;;;;;;;83.65;42.25;;;;;;;;;;5111311;28;20208;-61
2020/12/09 04:36:53;;;;;;;88.25;39.85;;;;;;;;;;5111203;28;20206;-61
2020/12/09 04:39:20;;;;;;;84.80;40.70;;;;;;;;;;5111087;28;20200;-61
2020/12/09 04:41:47;;;;;;;94.72;40.42;;;;;;;;;;5110959;28;20590;-62
2020/12/09 04:44:14;;;;;;;82.55;39.92;;;;;;;;;;5111115;28;20253;-61
2020/12/09 04:46:42;;;;;;;87.97;41.33;;;;;;;;;;5111208;28;20277;-62
2020/12/09 04:49:14;;;;;;;82.07;38.88;;;;;;;;;;5111270;28;20264;-62
2020/12/09 04:52:07;;;;;;;72.22;38.13;;;;;;;;;;5111008;28;20273;-62
2020/12/09 04:54:38;;;;;;;83.22;42.03;;;;;;;;;;5110851;28;20181;-62
2020/12/09 04:57:16;;;;;;;79.15;43.15;;;;;;;;;;5110806;28;20233;-62
2020/12/09 04:59:43;;;;;;;77.70;40.83;;;;;;;;;;5110245;28;20254;-61
2020/12/09 05:02:10;;;;;;;80.10;43.60;;;;;;;;;;5111568;28;20228;-61
2020/12/09 05:04:38;;;;;;;74.78;40.40;;;;;;;;;;5118707;28;20245;-62
2020/12/09 05:07:10;;;;;;;86.63;40.58;;;;;;;;;;5121374;28;20707;-61
2020/12/09 05:09:42;;;;;;;88.85;42.28;;;;;;;;;;5120941;28;20192;-61
2020/12/09 05:12:11;;;;;;;84.43;41.40;;;;;;;;;;5117895;28;20302;-61
2020/12/09 05:14:42;;;;;;;78.13;40.58;;;;;;;;;;5117202;28;20256;-61
2020/12/09 05:17:10;;;;;;;87.97;41.85;;;;;;;;;;5110208;28;20189;-60
2020/12/09 05:19:38;;;;;;;74.07;41.00;;;;;;;;;;5099187;28;20200;-61
2020/12/09 05:22:10;;;;;;;76.03;40.78;;;;;;;;;;5097864;28;20216;-61
2020/12/09 05:24:37;;;;;;;81.72;41.58;;;;;;;;;;5097808;28;20216;-61
2020/12/09 05:27:04;;;;;;;80.82;39.90;;;;;;;;;;5097395;28;20220;-61
2020/12/09 05:29:31;;;;;;;82.50;41.83;;;;;;;;;;5096728;28;20258;-62
2020/12/09 05:32:02;;;;;;;85.78;41.78;;;;;;;;;;5096317;28;20778;-60
2020/12/09 05:34:32;;;;;;;75.55;40.50;;;;;;;;;;5097137;28;20209;-61
2020/12/09 05:37:00;;;;;;;75.07;38.65;;;;;;;;;;5096342;28;20196;-61
2020/12/09 05:39:28;;;;;;;86.78;42.30;;;;;;;;;;5097150;28;20250;-61
2020/12/09 05:41:54;;;;;;;77.03;41.35;;;;;;;;;;5099038;28;20220;-61
2020/12/09 05:44:22;;;;;;;79.28;44.08;;;;;;;;;;5096796;28;20204;-61
2020/12/09 05:46:58;;;;;;;77.50;39.83;;;;;;;;;;5095825;28;20220;-61
2020/12/09 05:49:28;;;;;;;84.45;43.03;;;;;;;;;;5096312;28;20184;-62
2020/12/09 05:52:08;;;;;;;81.90;42.75;;;;;;;;;;5096146;28;20273;-62
2020/12/09 05:54:35;;;;;;;81.88;42.88;;;;;;;;;;5096015;28;20551;-61
2020/12/09 05:57:05;;;;;;;84.95;44.83;;;;;;;;;;5095926;28;20208;-61
2020/12/09 05:59:33;;;;;;;89.78;41.67;;;;;;;;;;5096078;28;20255;-61
2020/12/09 06:02:10;;;;;;;88.38;41.03;;;;;;;;;;5096059;28;20286;-61
2020/12/09 06:04:53;;;;;;;78.18;41.42;;;;;;;;;;5095869;28;20263;-61
2020/12/09 06:07:21;;;;;;;77.82;42.03;;;;;;;;;;5095232;28;20219;-60
2020/12/09 06:10:07;;;;;;;76.07;42.80;;;;;;;;;;5095414;28;20230;-58
2020/12/09 06:12:50;;;;;;;88.53;45.92;;;;;;;;;;5095770;28;20289;-61
2020/12/09 06:15:16;;;;;;;78.80;43.00;;;;;;;;;;5095978;28;20204;-61
2020/12/09 06:17:43;;;;;;;77.50;42.22;;;;;;;;;;5096102;28;20272;-61
2020/12/09 06:20:11;;;;;;;82.63;42.22;;;;;;;;;;5095771;28;20200;-62
2020/12/09 06:22:38;;;;;;;80.00;42.63;;;;;;;;;;5095991;28;20248;-61
2020/12/09 06:25:05;;;;;;;70.35;40.28;;;;;;;;;;5095585;28;20204;-61
2020/12/09 06:27:33;;;;;;;78.68;43.60;;;;;;;;;;5096576;28;20229;-60
2020/12/09 06:30:00;;;;;;;74.18;41.97;;;;;;;;;;5095918;28;20291;-60
2020/12/09 06:32:26;;;;;;;84.63;44.78;;;;;;;;;;5096524;28;20224;-61
2020/12/09 06:35:05;;;;;;;80.03;43.50;;;;;;;;;;5097529;28;20246;-60
2020/12/09 06:37:32;;;;;;;78.28;42.70;;;;;;;;;;5097011;28;20189;-61
2020/12/09 06:40:09;;;;;;;75.63;43.17;;;;;;;;;;5096502;28;20283;-61
2020/12/09 06:42:36;;;;;;;78.10;42.63;;;;;;;;;;5095839;28;20703;-60
2020/12/09 06:45:03;;;;;;;76.43;42.33;;;;;;;;;;5095534;28;20225;-61
2020/12/09 06:47:30;;;;;;;79.22;42.50;;;;;;;;;;5096071;28;20307;-61
2020/12/09 06:50:00;;;;;;;79.35;44.15;;;;;;;;;;5096828;28;20234;-61
2020/12/09 06:52:28;;;;;;;74.22;41.03;;;;;;;;;;5110721;28;20220;-60
2020/12/09 06:54:56;;;;;;;82.43;45.45;;;;;;;;;;5114196;28;20200;-61
2020/12/09 06:57:25;;;;;;;75.75;43.17;;;;;;;;;;5114598;28;20234;-60
2020/12/09 06:59:52;;;;;;;73.30;42.22;;;;;;;;;;5112525;28;20201;-61
2020/12/09 07:02:26;;;;;;;66.88;42.28;;;;;;;;;;5111726;28;20238;-61
2020/12/09 07:05:06;;;;;;;76.00;43.85;;;;;;;;;;5112008;28;20200;-61
2020/12/09 07:07:34;;;;;;;82.68;43.20;;;;;;;;;;5099840;28;20208;-61
2020/12/09 07:10:03;;;;;;;75.88;44.70;;;;;;;;;;5095319;28;20286;-61
2020/12/09 07:12:30;;;;;;;76.88;43.75;;;;;;;;;;5096123;28;20231;-61
2020/12/09 07:14:58;;;;;;;80.18;44.75;;;;;;;;;;5094954;28;20672;-62
2020/12/09 07:17:25;;;;;;;80.45;43.78;;;;;;;;;;5094901;28;20218;-61
2020/12/09 07:19:52;;;;;;;76.93;43.67;;;;;;;;;;5095222;28;20204;-61
2020/12/09 07:22:19;;;;;;;73.95;42.10;;;;;;;;;;5094995;28;20224;-61
2020/12/09 07:24:46;;;;;;;78.60;43.03;;;;;;;;;;5094236;28;20200;-60
2020/12/09 07:27:14;;;;;;;75.63;42.40;;;;;;;;;;5094673;28;20223;-61
2020/12/09 07:29:41;;;;;;;71.78;42.67;;;;;;;;;;5097270;28;20211;-61
2020/12/09 07:32:08;;;;;;;72.43;44.47;;;;;;;;;;5099800;28;20582;-60
2020/12/09 07:34:35;;;;;;;82.38;43.22;;;;;;;;;;5096090;28;20606;-60
2020/12/09 07:37:02;;;;;;;68.30;40.53;;;;;;;;;;5100210;28;20200;-60
2020/12/09 07:39:30;;;;;;;76.00;42.20;;;;;;;;;;5102843;28;20200;-62
2020/12/09 07:42:00;;;;;;;69.80;39.47;;;;;;;;;;5102438;28;20228;-61
2020/12/09 07:44:28;;;;;;;68.20;41.33;;;;;;;;;;5097419;28;20208;-60
2020/12/09 07:46:56;;;;;;;74.88;40.35;;;;;;;;;;5095141;28;20227;-61
2020/12/09 07:49:22;;;;;;;64.22;38.92;;;;;;;;;;5095801;28;20208;-63
2020/12/09 07:51:51;;;;;;;68.80;38.72;;;;;;;;;;5095542;28;20224;-62
2020/12/09 07:54:19;;;;;;;69.82;41.47;;;;;;;;;;5095319;28;20390;-63
2020/12/09 07:56:45;;;;;;;68.20;39.63;;;;;;;;;;5096443;28;20268;-64
2020/12/09 07:59:13;;;;;;;63.17;39.53;;;;;;;;;;5095124;28;20225;-63
2020/12/09 08:01:41;;;;;;;70.00;40.50;;;;;;;;;;5095042;28;20621;-63
2020/12/09 08:04:09;;;;;;;65.18;39.17;;;;;;;;;;5094488;28;20196;-64
2020/12/09 08:06:36;;;;;;;63.78;38.78;;;;;;;;;;5093791;28;20259;-63
2020/12/09 08:09:13;;;;;;;63.45;37.10;;;;;;;;;;5094268;28;20243;-64
2020/12/09 08:11:40;;;;;;;69.13;40.45;;;;;;;;;;5094640;28;20262;-63
2020/12/09 08:14:07;;;;;;;68.60;40.83;;;;;;;;;;5095174;28;20668;-62
2020/12/09 08:16:34;;;;;;;64.97;37.25;;;;;;;;;;5095454;28;20733;-64
2020/12/09 08:19:07;;;;;;;66.47;39.13;;;;;;;;;;5096013;28;20208;-63
2020/12/09 08:21:34;;;;;;;63.50;38.63;;;;;;;;;;5095615;28;20220;-64
2020/12/09 08:24:11;;;;;;;72.32;40.67;;;;;;;;;;5094505;28;20235;-64
2020/12/09 08:26:38;;;;;;;69.25;40.35;;;;;;;;;;5094246;28;20290;-63
2020/12/09 08:29:05;;;;;;;69.43;39.13;;;;;;;;;;5094636;28;20232;-65
2020/12/09 08:31:33;;;;;;;69.75;38.40;;;;;;;;;;5094853;28;20224;-63
2020/12/09 08:34:00;;;;;;;70.82;39.63;;;;;;;;;;5095539;28;20207;-62
2020/12/09 08:36:30;;;;;;;71.40;41.50;;;;;;;;;;5095081;28;20197;-63
2020/12/09 08:38:59;;;;;;;67.53;39.50;;;;;;;;;;5093772;28;20618;-62
2020/12/09 08:41:27;;;;;;;62.72;38.03;;;;;;;;;;5094095;28;20256;-63
2020/12/09 08:43:55;;;;;;;71.68;38.17;;;;;;;;;;5093485;28;20204;-62
2020/12/09 08:46:23;;;;;;;74.20;38.55;;;;;;;;;;5093223;28;20706;-62
2020/12/09 08:48:49;;;;;;;63.97;38.50;;;;;;;;;;5093455;28;20295;-63
2020/12/09 08:51:16;;;;;;;69.13;40.47;;;;;;;;;;5093319;28;20265;-61
2020/12/09 08:53:44;;;;;;;67.45;37.88;;;;;;;;;;5096124;28;20197;-63
2020/12/09 08:56:10;;;;;;;76.00;42.72;;;;;;;;;;5097460;28;20591;-62
2020/12/09 08:58:37;;;;;;;63.08;38.05;;;;;;;;;;5099004;28;20246;-63
2020/12/09 09:01:04;;;;;;;65.78;38.05;;;;;;;;;;5100215;28;20220;-63
2020/12/09 09:03:36;;;;;;;71.57;39.50;;;;;;;;;;5099526;28;20207;-62
2020/12/09 09:06:03;;;;;;;70.00;40.47;;;;;;;;;;5099287;28;20228;-64
2020/12/09 09:08:30;;;;;;;64.28;39.25;;;;;;;;;;5098577;28;20564;-63
2020/12/09 09:10:57;;;;;;;67.18;38.25;;;;;;;;;;5097866;28;20216;-63
2020/12/09 09:13:24;;;;;;;66.28;38.90;;;;;;;;;;5097581;28;20211;-63
2020/12/09 09:15:51;;;;;;;67.70;38.90;;;;;;;;;;5097643;28;20196;-63
2020/12/09 09:18:18;;;;;;;67.93;38.00;;;;;;;;;;5097839;28;20234;-63
2020/12/09 09:20:45;;;;;;;69.97;37.45;;;;;;;;;;5097444;28;20266;-62
2020/12/09 09:23:11;;;;;;;67.43;39.22;;;;;;;;;;5097814;28;20222;-61
2020/12/09 09:25:40;;;;;;;74.85;39.78;;;;;;;;;;5098349;28;20204;-63
2020/12/09 09:28:08;;;;;;;71.53;39.67;;;;;;;;;;5097622;28;20204;-62
2020/12/09 09:30:34;;;;;;;69.00;37.90;;;;;;;;;;5097123;28;20207;-63
2020/12/09 09:33:01;;;;;;;72.32;40.40;;;;;;;;;;5097139;28;20201;-62
2020/12/09 09:35:28;;;;;;;67.00;39.60;;;;;;;;;;5099075;28;20204;-63
2020/12/09 09:37:55;;;;;;;67.60;39.38;;;;;;;;;;5102494;28;20652;-63
2020/12/09 09:40:21;;;;;;;71.05;40.88;;;;;;;;;;5101997;28;20204;-63
2020/12/09 09:42:49;;;;;;;66.75;38.08;;;;;;;;;;5097644;28;20595;-63
2020/12/09 09:45:33;;;;;;;73.30;41.75;;;;;;;;;;5098440;28;20208;-65
2020/12/09 09:48:13;;;;;;;66.28;38.33;;;;;;;;;;5099018;28;20301;-63
2020/12/09 09:50:40;;;;;;;68.25;39.22;;;;;;;;;;5096941;28;20238;-62
2020/12/09 09:53:07;;;;;;;68.30;37.78;;;;;;;;;;5096854;28;20573;-62
2020/12/09 09:55:33;;;;;;;64.38;36.25;;;;;;;;;;5097350;28;20644;-64
2020/12/09 09:58:00;;;;;;;56.33;36.95;;;;;;;;;;5097302;28;20197;-64
2020/12/09 10:00:28;;;;;;;65.55;37.13;;;;;;;;;;5096612;28;20196;-65
2020/12/09 10:02:55;;;;;;;59.67;37.88;;;;;;;;;;5096925;28;20225;-64
2020/12/09 10:05:24;;;;;;;64.40;36.40;;;;;;;;;;5096856;28;20265;-64
2020/12/09 10:07:51;;;;;;;73.80;36.75;;;;;;;;;;5098666;28;20211;-66
2020/12/09 10:10:18;;;;;;;63.47;37.13;;;;;;;;;;5098284;28;20234;-64
2020/12/09 10:12:44;;;;;;;60.10;34.85;;;;;;;;;;5102729;28;20737;-65
2020/12/09 10:15:11;;;;;;;59.03;35.35;;;;;;;;;;5101828;28;20197;-65
2020/12/09 10:17:39;;;;;;;63.53;36.00;;;;;;;;;;5100889;28;20566;-65
2020/12/09 10:20:06;;;;;;;59.88;35.55;;;;;;;;;;5099770;28;20253;-66
2020/12/09 10:22:32;;;;;;;66.68;37.63;;;;;;;;;;5098051;28;20238;-67
2020/12/09 10:24:59;;;;;;;65.90;38.63;;;;;;;;;;5099614;28;20208;-65
2020/12/09 10:27:26;;;;;;;66.72;38.50;;;;;;;;;;5097883;28;20223;-64
2020/12/09 10:29:52;;;;;;;67.07;36.95;;;;;;;;;;5098508;28;20204;-66
2020/12/09 10:32:21;;;;;;;63.83;38.08;;;;;;;;;;5098580;28;20228;-64
2020/12/09 10:34:49;;;;;;;70.65;38.13;;;;;;;;;;5101426;28;20600;-65
2020/12/09 10:37:16;;;;;;;69.28;37.33;;;;;;;;;;5102567;28;20690;-65
2020/12/09 10:39:43;;;;;;;77.95;39.92;;;;;;;;;;5103633;28;20200;-65
2020/12/09 10:42:09;;;;;;;73.75;39.17;;;;;;;;;;5107603;28;20224;-64
2020/12/09 10:44:36;;;;;;;70.20;39.67;;;;;;;;;;5109075;28;20253;-66
2020/12/09 10:47:04;;;;;;;68.07;38.47;;;;;;;;;;5108026;28;20216;-64
2020/12/09 10:49:32;;;;;;;73.57;40.75;;;;;;;;;;5104839;28;20211;-64
2020/12/09 10:52:00;;;;;;;68.25;39.85;;;;;;;;;;5101672;28;20608;-66
2020/12/09 10:54:27;;;;;;;71.00;39.17;;;;;;;;;;5102393;28;20204;-65
2020/12/09 10:56:53;;;;;;;76.82;40.38;;;;;;;;;;5101938;28;20603;-65
2020/12/09 10:59:20;;;;;;;70.75;38.10;;;;;;;;;;5098323;28;20196;-65
2020/12/09 11:01:47;;;;;;;67.90;37.03;;;;;;;;;;5098958;28;20639;-64
2020/12/09 11:04:14;;;;;;;78.07;40.20;;;;;;;;;;5097746;28;20200;-64
2020/12/09 11:06:44;;;;;;;68.10;36.85;;;;;;;;;;5097235;28;20224;-65
2020/12/09 11:09:12;;;;;;;68.55;37.75;;;;;;;;;;5097291;28;20192;-67
2020/12/09 11:11:45;;;;;;;76.15;41.08;;;;;;;;;;5096134;28;20220;-65
2020/12/09 11:14:11;;;;;;;66.90;38.75;;;;;;;;;;5095419;28;20187;-65
2020/12/09 11:16:38;;;;;;;73.28;38.78;;;;;;;;;;5095549;28;20193;-66
2020/12/09 11:19:05;;;;;;;70.70;38.55;;;;;;;;;;5096379;28;20200;-66
2020/12/09 11:21:32;;;;;;;74.10;38.30;;;;;;;;;;5096541;28;20224;-67
2020/12/09 11:23:59;;;;;;;78.47;38.28;;;;;;;;;;5095335;28;20196;-66
2020/12/09 11:26:27;;;;;;;68.18;36.75;;;;;;;;;;5094902;28;20798;-66
2020/12/09 11:28:54;;;;;;;75.25;37.92;;;;;;;;;;5095284;28;20251;-66
2020/12/09 11:31:22;;;;;;;72.80;37.00;;;;;;;;;;5097014;28;20277;-67
2020/12/09 11:33:49;;;;;;;72.22;37.97;;;;;;;;;;5096242;28;20257;-64
2020/12/09 11:36:15;;;;;;;75.05;39.28;;;;;;;;;;5095568;28;20200;-64
2020/12/09 11:38:42;;;;;;;75.18;39.65;;;;;;;;;;5095122;28;20196;-65
2020/12/09 11:41:09;;;;;;;67.22;37.88;;;;;;;;;;5094749;28;20246;-65
2020/12/09 11:43:37;;;;;;;70.45;37.22;;;;;;;;;;5095757;28;20200;-66
2020/12/09 11:46:03;;;;;;;74.00;37.35;;;;;;;;;;5095213;28;20208;-67
2020/12/09 11:48:30;;;;;;;72.20;36.97;;;;;;;;;;5096497;28;20200;-66
2020/12/09 11:50:57;;;;;;;70.28;39.60;;;;;;;;;;5099386;28;20642;-65
2020/12/09 11:53:24;;;;;;;76.95;39.75;;;;;;;;;;5098631;28;20576;-65
2020/12/09 11:55:51;;;;;;;69.38;36.22;;;;;;;;;;5096783;28;20200;-66
2020/12/09 11:58:17;;;;;;;73.22;36.85;;;;;;;;;;5095794;28;20196;-65
2020/12/09 12:00:45;;;;;;;80.28;40.42;;;;;;;;;;5096720;28;20220;-65
2020/12/09 12:03:12;;;;;;;61.83;35.92;;;;;;;;;;5097631;28;20196;-64
2020/12/09 12:05:40;;;;;;;67.28;35.90;;;;;;;;;;5096509;28;20215;-65
2020/12/09 12:08:07;;;;;;;66.00;35.30;;;;;;;;;;5098097;28;20315;-64
2020/12/09 12:10:34;;;;;;;73.82;38.83;;;;;;;;;;5098690;28;20253;-64
2020/12/09 12:13:03;;;;;;;71.40;39.92;;;;;;;;;;5100089;28;20200;-65
2020/12/09 12:15:30;;;;;;;65.50;37.10;;;;;;;;;;5097902;28;20664;-64
2020/12/09 12:17:58;;;;;;;68.13;38.17;;;;;;;;;;5096026;28;20623;-64
2020/12/09 12:20:25;;;;;;;62.85;34.97;;;;;;;;;;5094926;28;20196;-64
2020/12/09 12:22:51;;;;;;;71.80;37.67;;;;;;;;;;5095216;28;20299;-64
2020/12/09 12:25:18;;;;;;;67.22;37.25;;;;;;;;;;5096388;28;20204;-64
2020/12/09 12:27:45;;;;;;;66.05;36.42;;;;;;;;;;5098397;28;20288;-64
2020/12/09 12:30:12;;;;;;;62.10;37.50;;;;;;;;;;5099871;28;20257;-65
2020/12/09 12:32:39;;;;;;;66.90;37.13;;;;;;;;;;5098627;28;20228;-66
2020/12/09 12:35:07;;;;;;;65.65;35.83;;;;;;;;;;5098292;28;20652;-65
2020/12/09 12:37:34;;;;;;;69.65;36.13;;;;;;;;;;5098635;28;20200;-64
2020/12/09 12:40:02;;;;;;;68.10;36.80;;;;;;;;;;5099321;28;20200;-64
2020/12/09 12:42:29;;;;;;;72.25;38.65;;;;;;;;;;5101333;28;20310;-65
2020/12/09 12:44:55;;;;;;;63.50;36.40;;;;;;;;;;5100483;28;20249;-64
2020/12/09 12:47:22;;;;;;;65.93;37.70;;;;;;;;;;5100471;28;20212;-64
2020/12/09 12:49:49;;;;;;;71.93;37.47;;;;;;;;;;5100678;28;20873;-64
2020/12/09 12:52:16;;;;;;;73.30;38.08;;;;;;;;;;5099855;28;20239;-66
2020/12/09 12:54:44;;;;;;;62.25;36.90;;;;;;;;;;5100934;28;20257;-66
2020/12/09 12:57:10;;;;;;;64.35;36.72;;;;;;;;;;5100037;28;20292;-66
2020/12/09 12:59:37;;;;;;;67.35;38.72;;;;;;;;;;5100075;28;20204;-65
2020/12/09 13:02:04;;;;;;;77.85;41.60;;;;;;;;;;5098306;28;20246;-66
2020/12/09 13:04:31;;;;;;;67.13;37.38;;;;;;;;;;5097484;28;20201;-65
2020/12/09 13:06:58;;;;;;;65.25;37.67;;;;;;;;;;5098198;28;20224;-64
2020/12/09 13:09:26;;;;;;;71.82;38.05;;;;;;;;;;5098588;28;20200;-64
2020/12/09 13:11:52;;;;;;;77.65;39.63;;;;;;;;;;5098449;28;20296;-64
2020/12/09 13:14:19;;;;;;;73.95;39.00;;;;;;;;;;5099202;28;20365;-65
2020/12/09 13:16:47;;;;;;;79.35;39.17;;;;;;;;;;5098954;28;20200;-64
2020/12/09 13:19:14;;;;;;;82.32;39.20;;;;;;;;;;5098003;28;20721;-65
2020/12/09 13:21:40;;;;;;;78.18;38.90;;;;;;;;;;5097045;28;20274;-64
2020/12/09 13:24:07;;;;;;;72.68;37.30;;;;;;;;;;5098105;28;20249;-64
2020/12/09 13:26:35;;;;;;;78.03;40.47;;;;;;;;;;5096768;28;20312;-64
2020/12/09 13:29:02;;;;;;;82.18;40.85;;;;;;;;;;5097090;28;20618;-65
2020/12/09 13:31:28;;;;;;;80.72;39.85;;;;;;;;;;5097331;28;20745;-65
2020/12/09 13:33:55;;;;;;;85.35;38.60;;;;;;;;;;5097678;28;20227;-64
2020/12/09 13:36:23;;;;;;;74.90;40.03;;;;;;;;;;5098107;28;20246;-66
2020/12/09 13:38:50;;;;;;;80.55;42.17;;;;;;;;;;5097315;28;20234;-65
2020/12/09 13:41:16;;;;;;;79.75;39.47;;;;;;;;;;5096792;28;20769;-64
2020/12/09 13:43:44;;;;;;;82.68;42.10;;;;;;;;;;5097209;28;20250;-65
2020/12/09 13:46:11;;;;;;;81.32;40.38;;;;;;;;;;5098074;28;20201;-66
2020/12/09 13:48:38;;;;;;;74.13;38.60;;;;;;;;;;5097966;28;20208;-64
2020/12/09 13:51:04;;;;;;;84.18;43.28;;;;;;;;;;5102160;28;20224;-66
2020/12/09 13:53:31;;;;;;;79.78;40.38;;;;;;;;;;5099248;28;20200;-66
2020/12/09 13:55:58;;;;;;;79.25;42.17;;;;;;;;;;5098158;28;20311;-66
2020/12/09 13:58:25;;;;;;;77.97;39.90;;;;;;;;;;5097995;28;20242;-66
2020/12/09 14:00:53;;;;;;;73.55;39.60;;;;;;;;;;5098851;28;20286;-66
2020/12/09 14:03:19;;;;;;;78.38;39.42;;;;;;;;;;5098180;28;20212;-65
2020/12/09 14:05:47;;;;;;;76.85;38.80;;;;;;;;;;5097012;28;20280;-64
2020/12/09 14:08:15;;;;;;;86.10;40.65;;;;;;;;;;5097305;28;20223;-64
2020/12/09 14:10:41;;;;;;;75.25;37.22;;;;;;;;;;5096970;28;20707;-64
2020/12/09 14:13:08;;;;;;;71.72;35.97;;;;;;;;;;5096508;28;20204;-66
2020/12/09 14:15:35;;;;;;;73.72;38.35;;;;;;;;;;5096750;28;20250;-65
2020/12/09 14:18:02;;;;;;;76.80;39.58;;;;;;;;;;5096757;28;20226;-66
2020/12/09 14:20:29;;;;;;;85.07;39.08;;;;;;;;;;5097473;28;20805;-66